Dallas, Texas
Current Conditions -  °F | °C
As of 11:53 AM on Thursday 27 Nov 2014 (Local Time) from KDAL Reporting Station
Few Clouds Few Clouds  
Wind Chill: 12°   Ceiling: Unl
Heat Index: 12°   Visibility: 10mi
Dew Point: -7°   Wind: 5mph
Humidity: 26%   Direction: NA
Pressure: 30.51"   Gusts: NA
Location:  32.78°N, 96.79°W
Report Text: KDAL 271753Z VRB04KT 10SM FEW250 12/M07 A3051 RMK AO2 SLP332 T01221067 10122 20039 58009
Loading
Personal Weather Stations






























Interactive Weather Map New forecast layout! Learn more

10-Day Weather Forecast

Advertisements
Track Severe Weather on mobile